sensor_id;sensor_type;location;lat;lon;timestamp;temperature;humidity
1415;DHT22;702;49.466;11.086;2024-03-08T00:01:03;1.00;78.50
1415;DHT22;702;49.466;11.086;2024-03-08T00:03:32;1.00;78.60
1415;DHT22;702;49.466;11.086;2024-03-08T00:06:00;1.00;78.70
1415;DHT22;702;49.466;11.086;2024-03-08T00:08:29;1.10;78.90
1415;DHT22;702;49.466;11.086;2024-03-08T00:10:59;1.00;78.90
1415;DHT22;702;49.466;11.086;2024-03-08T00:13:27;1.00;79.00
1415;DHT22;702;49.466;11.086;2024-03-08T00:15:57;1.00;79.10
1415;DHT22;702;49.466;11.086;2024-03-08T00:18:24;1.00;79.40
1415;DHT22;702;49.466;11.086;2024-03-08T00:20:52;1.00;79.50
1415;DHT22;702;49.466;11.086;2024-03-08T00:23:20;0.90;79.50
1415;DHT22;702;49.466;11.086;2024-03-08T00:25:49;0.90;79.60
1415;DHT22;702;49.466;11.086;2024-03-08T00:28:18;0.90;79.80
1415;DHT22;702;49.466;11.086;2024-03-08T00:30:47;0.90;79.90
1415;DHT22;702;49.466;11.086;2024-03-08T00:33:14;0.90;80.10
1415;DHT22;702;49.466;11.086;2024-03-08T00:35:42;0.90;80.20
1415;DHT22;702;49.466;11.086;2024-03-08T00:38:10;0.90;80.30
1415;DHT22;702;49.466;11.086;2024-03-08T00:40:37;0.80;80.40
1415;DHT22;702;49.466;11.086;2024-03-08T00:43:06;0.70;80.50
1415;DHT22;702;49.466;11.086;2024-03-08T00:45:34;0.70;80.90
1415;DHT22;702;49.466;11.086;2024-03-08T00:48:03;0.70;81.10
1415;DHT22;702;49.466;11.086;2024-03-08T00:50:32;0.70;81.20
1415;DHT22;702;49.466;11.086;2024-03-08T00:53:00;0.70;81.40
1415;DHT22;702;49.466;11.086;2024-03-08T00:55:27;0.60;81.50
1415;DHT22;702;49.466;11.086;2024-03-08T00:57:55;0.70;81.70
1415;DHT22;702;49.466;11.086;2024-03-08T01:00:24;0.70;81.70
1415;DHT22;702;49.466;11.086;2024-03-08T01:02:56;0.70;81.80
1415;DHT22;702;49.466;11.086;2024-03-08T01:05:24;0.60;81.70
1415;DHT22;702;49.466;11.086;2024-03-08T01:07:53;0.60;81.90
1415;DHT22;702;49.466;11.086;2024-03-08T01:10:22;0.60;82.00
1415;DHT22;702;49.466;11.086;2024-03-08T01:12:51;0.70;82.00
1415;DHT22;702;49.466;11.086;2024-03-08T01:15:21;0.60;82.20
1415;DHT22;702;49.466;11.086;2024-03-08T01:17:48;0.60;82.20
1415;DHT22;702;49.466;11.086;2024-03-08T01:20:17;0.60;82.50
1415;DHT22;702;49.466;11.086;2024-03-08T01:22:45;0.60;82.50
1415;DHT22;702;49.466;11.086;2024-03-08T01:25:13;0.60;82.60
1415;DHT22;702;49.466;11.086;2024-03-08T01:27:41;0.60;82.80
1415;DHT22;702;49.466;11.086;2024-03-08T01:30:08;0.60;82.80
1415;DHT22;702;49.466;11.086;2024-03-08T01:32:36;0.60;82.80
1415;DHT22;702;49.466;11.086;2024-03-08T01:35:05;0.60;82.60
1415;DHT22;702;49.466;11.086;2024-03-08T01:37:36;0.50;82.40
1415;DHT22;702;49.466;11.086;2024-03-08T01:40:05;0.50;82.80
1415;DHT22;702;49.466;11.086;2024-03-08T01:42:35;0.50;82.90
1415;DHT22;702;49.466;11.086;2024-03-08T01:45:06;0.50;82.90
1415;DHT22;702;49.466;11.086;2024-03-08T01:47:34;0.50;83.20
1415;DHT22;702;49.466;11.086;2024-03-08T01:50:04;0.50;83.40
1415;DHT22;702;49.466;11.086;2024-03-08T01:52:33;0.50;83.60
1415;DHT22;702;49.466;11.086;2024-03-08T01:55:06;0.40;83.40
1415;DHT22;702;49.466;11.086;2024-03-08T01:57:34;0.50;83.50
1415;DHT22;702;49.466;11.086;2024-03-08T02:00:05;0.50;83.30
1415;DHT22;702;49.466;11.086;2024-03-08T02:02:37;0.50;83.20
1415;DHT22;702;49.466;11.086;2024-03-08T02:05:07;0.50;83.30
1415;DHT22;702;49.466;11.086;2024-03-08T02:07:42;0.50;83.20
1415;DHT22;702;49.466;11.086;2024-03-08T02:10:11;0.50;83.50
1415;DHT22;702;49.466;11.086;2024-03-08T02:12:42;0.50;83.50
1415;DHT22;702;49.466;11.086;2024-03-08T02:15:09;0.40;83.80
1415;DHT22;702;49.466;11.086;2024-03-08T02:17:40;0.50;83.60
1415;DHT22;702;49.466;11.086;2024-03-08T02:20:09;0.40;83.60
1415;DHT22;702;49.466;11.086;2024-03-08T02:22:41;0.40;83.70
1415;DHT22;702;49.466;11.086;2024-03-08T02:25:11;0.40;83.60
1415;DHT22;702;49.466;11.086;2024-03-08T02:27:39;0.40;83.50
1415;DHT22;702;49.466;11.086;2024-03-08T02:30:08;0.40;83.40
1415;DHT22;702;49.466;11.086;2024-03-08T02:32:38;0.40;83.60
1415;DHT22;702;49.466;11.086;2024-03-08T02:35:06;0.40;83.70
1415;DHT22;702;49.466;11.086;2024-03-08T02:37:34;0.40;83.80
1415;DHT22;702;49.466;11.086;2024-03-08T02:40:04;0.40;83.80
1415;DHT22;702;49.466;11.086;2024-03-08T02:42:32;0.40;83.80
1415;DHT22;702;49.466;11.086;2024-03-08T02:44:59;0.40;83.80
1415;DHT22;702;49.466;11.086;2024-03-08T02:47:31;0.40;83.90
1415;DHT22;702;49.466;11.086;2024-03-08T02:49:58;0.40;83.90
1415;DHT22;702;49.466;11.086;2024-03-08T02:52:27;0.40;83.90
1415;DHT22;702;49.466;11.086;2024-03-08T02:54:54;0.30;84.00
1415;DHT22;702;49.466;11.086;2024-03-08T02:57:22;0.30;83.90
1415;DHT22;702;49.466;11.086;2024-03-08T02:59:50;0.30;84.30
1415;DHT22;702;49.466;11.086;2024-03-08T03:02:17;0.30;84.30
1415;DHT22;702;49.466;11.086;2024-03-08T03:04:44;0.30;84.20
1415;DHT22;702;49.466;11.086;2024-03-08T03:07:11;0.20;84.30
1415;DHT22;702;49.466;11.086;2024-03-08T03:09:39;0.20;84.40
1415;DHT22;702;49.466;11.086;2024-03-08T03:12:07;0.20;84.50
1415;DHT22;702;49.466;11.086;2024-03-08T03:14:37;0.20;84.60
1415;DHT22;702;49.466;11.086;2024-03-08T03:17:05;0.20;84.50
1415;DHT22;702;49.466;11.086;2024-03-08T03:19:32;0.20;84.30
1415;DHT22;702;49.466;11.086;2024-03-08T03:22:02;0.20;84.70
1415;DHT22;702;49.466;11.086;2024-03-08T03:24:33;0.20;84.80
1415;DHT22;702;49.466;11.086;2024-03-08T03:27:01;0.20;84.70
1415;DHT22;702;49.466;11.086;2024-03-08T03:29:38;0.20;84.50
1415;DHT22;702;49.466;11.086;2024-03-08T03:32:05;0.10;84.90
1415;DHT22;702;49.466;11.086;2024-03-08T03:34:33;0.10;85.40
1415;DHT22;702;49.466;11.086;2024-03-08T03:37:02;0.10;85.60
1415;DHT22;702;49.466;11.086;2024-03-08T03:39:30;0.10;85.60
1415;DHT22;702;49.466;11.086;2024-03-08T03:42:00;0.00;85.60
1415;DHT22;702;49.466;11.086;2024-03-08T03:44:27;-0.10;86.30
1415;DHT22;702;49.466;11.086;2024-03-08T03:46:58;0.00;86.50
1415;DHT22;702;49.466;11.086;2024-03-08T03:49:27;0.00;86.40
1415;DHT22;702;49.466;11.086;2024-03-08T03:51:55;0.00;86.50
1415;DHT22;702;49.466;11.086;2024-03-08T03:54:23;0.00;86.70
1415;DHT22;702;49.466;11.086;2024-03-08T03:56:50;0.00;86.60
1415;DHT22;702;49.466;11.086;2024-03-08T03:59:21;0.00;86.50
1415;DHT22;702;49.466;11.086;2024-03-08T04:01:53;0.00;86.20
1415;DHT22;702;49.466;11.086;2024-03-08T04:04:24;0.00;86.50
1415;DHT22;702;49.466;11.086;2024-03-08T04:06:52;0.00;86.50
1415;DHT22;702;49.466;11.086;2024-03-08T04:09:21;0.00;86.20
1415;DHT22;702;49.466;11.086;2024-03-08T04:11:54;0.00;86.40
1415;DHT22;702;49.466;11.086;2024-03-08T04:14:23;0.10;86.50
1415;DHT22;702;49.466;11.086;2024-03-08T04:16:52;0.00;86.50
1415;DHT22;702;49.466;11.086;2024-03-08T04:19:21;0.00;86.30
1415;DHT22;702;49.466;11.086;2024-03-08T04:21:51;0.10;86.40
1415;DHT22;702;49.466;11.086;2024-03-08T04:24:19;0.10;86.10
1415;DHT22;702;49.466;11.086;2024-03-08T04:26:50;0.10;86.00
1415;DHT22;702;49.466;11.086;2024-03-08T04:29:18;0.00;86.10
1415;DHT22;702;49.466;11.086;2024-03-08T04:31:48;0.00;86.30
1415;DHT22;702;49.466;11.086;2024-03-08T04:34:16;0.00;86.30
1415;DHT22;702;49.466;11.086;2024-03-08T04:36:45;-0.10;86.90
1415;DHT22;702;49.466;11.086;2024-03-08T04:39:15;-0.10;86.80
1415;DHT22;702;49.466;11.086;2024-03-08T04:41:44;-0.10;87.20
1415;DHT22;702;49.466;11.086;2024-03-08T04:44:12;-0.10;87.20
1415;DHT22;702;49.466;11.086;2024-03-08T04:46:39;-0.10;87.00
1415;DHT22;702;49.466;11.086;2024-03-08T04:49:06;-0.10;87.60
1415;DHT22;702;49.466;11.086;2024-03-08T04:51:34;0.00;87.50
1415;DHT22;702;49.466;11.086;2024-03-08T04:54:02;0.00;87.40
1415;DHT22;702;49.466;11.086;2024-03-08T04:56:31;0.00;87.40
1415;DHT22;702;49.466;11.086;2024-03-08T04:58:59;0.00;87.50
1415;DHT22;702;49.466;11.086;2024-03-08T05:01:27;-0.10;87.40
1415;DHT22;702;49.466;11.086;2024-03-08T05:03:54;-0.10;87.70
1415;DHT22;702;49.466;11.086;2024-03-08T05:06:22;-0.10;87.90
1415;DHT22;702;49.466;11.086;2024-03-08T05:08:49;-0.10;87.90
1415;DHT22;702;49.466;11.086;2024-03-08T05:11:17;-0.10;87.90
1415;DHT22;702;49.466;11.086;2024-03-08T05:13:47;-0.10;88.50
1415;DHT22;702;49.466;11.086;2024-03-08T05:16:14;-0.10;88.50
1415;DHT22;702;49.466;11.086;2024-03-08T05:18:42;-0.10;88.70
1415;DHT22;702;49.466;11.086;2024-03-08T05:21:09;-0.20;88.80
1415;DHT22;702;49.466;11.086;2024-03-08T05:23:37;-0.20;88.90
1415;DHT22;702;49.466;11.086;2024-03-08T05:26:05;-0.10;89.30
1415;DHT22;702;49.466;11.086;2024-03-08T05:28:34;-0.10;89.00
1415;DHT22;702;49.466;11.086;2024-03-08T05:31:04;-0.10;89.10
1415;DHT22;702;49.466;11.086;2024-03-08T05:33:32;-0.10;89.00
1415;DHT22;702;49.466;11.086;2024-03-08T05:36:00;-0.10;89.00
1415;DHT22;702;49.466;11.086;2024-03-08T05:38:30;-0.10;89.00
1415;DHT22;702;49.466;11.086;2024-03-08T05:40:58;-0.10;89.00
1415;DHT22;702;49.466;11.086;2024-03-08T05:43:25;-0.10;89.70
1415;DHT22;702;49.466;11.086;2024-03-08T05:45:56;-0.10;89.60
1415;DHT22;702;49.466;11.086;2024-03-08T05:48:33;0.00;90.10
1415;DHT22;702;49.466;11.086;2024-03-08T05:51:01;-0.10;89.50
1415;DHT22;702;49.466;11.086;2024-03-08T05:53:29;-0.10;89.80
1415;DHT22;702;49.466;11.086;2024-03-08T05:55:57;0.00;89.90
1415;DHT22;702;49.466;11.086;2024-03-08T05:58:27;0.00;89.70
1415;DHT22;702;49.466;11.086;2024-03-08T06:00:57;0.10;89.80
1415;DHT22;702;49.466;11.086;2024-03-08T06:03:24;0.10;88.80
1415;DHT22;702;49.466;11.086;2024-03-08T06:05:53;0.10;88.60
1415;DHT22;702;49.466;11.086;2024-03-08T06:08:22;0.10;88.50
1415;DHT22;702;49.466;11.086;2024-03-08T06:10:55;0.10;88.40
1415;DHT22;702;49.466;11.086;2024-03-08T06:13:22;0.10;88.20
1415;DHT22;702;49.466;11.086;2024-03-08T06:15:50;0.10;88.20
1415;DHT22;702;49.466;11.086;2024-03-08T06:18:17;0.20;88.20
1415;DHT22;702;49.466;11.086;2024-03-08T06:20:44;0.20;87.90
1415;DHT22;702;49.466;11.086;2024-03-08T06:23:13;0.20;87.80
1415;DHT22;702;49.466;11.086;2024-03-08T06:25:43;0.30;87.40
1415;DHT22;702;49.466;11.086;2024-03-08T06:28:10;0.40;87.30
1415;DHT22;702;49.466;11.086;2024-03-08T06:30:39;0.40;86.80
1415;DHT22;702;49.466;11.086;2024-03-08T06:33:06;0.40;86.70
1415;DHT22;702;49.466;11.086;2024-03-08T06:35:34;0.40;86.20
1415;DHT22;702;49.466;11.086;2024-03-08T06:38:03;0.50;86.20
1415;DHT22;702;49.466;11.086;2024-03-08T06:40:33;0.50;86.10
1415;DHT22;702;49.466;11.086;2024-03-08T06:43:01;0.60;85.80
1415;DHT22;702;49.466;11.086;2024-03-08T06:45:32;0.60;86.20
1415;DHT22;702;49.466;11.086;2024-03-08T06:48:02;0.70;85.40
1415;DHT22;702;49.466;11.086;2024-03-08T06:50:29;0.80;86.00
1415;DHT22;702;49.466;11.086;2024-03-08T06:52:57;0.80;85.30
1415;DHT22;702;49.466;11.086;2024-03-08T06:55:25;1.00;86.60
1415;DHT22;702;49.466;11.086;2024-03-08T06:57:56;1.10;85.30
1415;DHT22;702;49.466;11.086;2024-03-08T07:00:24;1.20;85.10
1415;DHT22;702;49.466;11.086;2024-03-08T07:02:54;1.30;84.60
1415;DHT22;702;49.466;11.086;2024-03-08T07:05:23;1.40;83.50
1415;DHT22;702;49.466;11.086;2024-03-08T07:07:50;1.50;82.80
1415;DHT22;702;49.466;11.086;2024-03-08T07:10:18;1.40;83.10
1415;DHT22;702;49.466;11.086;2024-03-08T07:12:47;1.50;82.40
1415;DHT22;702;49.466;11.086;2024-03-08T07:15:18;1.50;82.20
1415;DHT22;702;49.466;11.086;2024-03-08T07:17:45;1.60;83.30
1415;DHT22;702;49.466;11.086;2024-03-08T07:20:13;1.70;82.80
1415;DHT22;702;49.466;11.086;2024-03-08T07:22:44;1.80;82.10
1415;DHT22;702;49.466;11.086;2024-03-08T07:25:14;1.80;81.70
1415;DHT22;702;49.466;11.086;2024-03-08T07:27:47;1.80;81.20
1415;DHT22;702;49.466;11.086;2024-03-08T07:30:19;1.90;81.90
1415;DHT22;702;49.466;11.086;2024-03-08T07:33:05;2.00;81.10
1415;DHT22;702;49.466;11.086;2024-03-08T07:35:33;2.00;81.20
1415;DHT22;702;49.466;11.086;2024-03-08T07:38:04;2.10;81.00
1415;DHT22;702;49.466;11.086;2024-03-08T07:40:31;2.20;80.40
1415;DHT22;702;49.466;11.086;2024-03-08T07:43:01;2.20;79.90
1415;DHT22;702;49.466;11.086;2024-03-08T07:45:30;2.30;79.80
1415;DHT22;702;49.466;11.086;2024-03-08T07:47:58;2.30;79.90
1415;DHT22;702;49.466;11.086;2024-03-08T07:50:25;2.40;79.70
1415;DHT22;702;49.466;11.086;2024-03-08T07:52:53;2.60;80.00
1415;DHT22;702;49.466;11.086;2024-03-08T07:55:20;2.80;79.20
1415;DHT22;702;49.466;11.086;2024-03-08T07:57:50;2.80;78.90
1415;DHT22;702;49.466;11.086;2024-03-08T08:00:18;2.80;78.70
1415;DHT22;702;49.466;11.086;2024-03-08T08:02:48;2.90;78.40
1415;DHT22;702;49.466;11.086;2024-03-08T08:05:18;2.90;77.90
1415;DHT22;702;49.466;11.086;2024-03-08T08:07:47;2.90;78.00
1415;DHT22;702;49.466;11.086;2024-03-08T08:10:15;2.80;77.80
1415;DHT22;702;49.466;11.086;2024-03-08T08:12:45;2.90;77.90
1415;DHT22;702;49.466;11.086;2024-03-08T08:15:13;2.90;77.80
1415;DHT22;702;49.466;11.086;2024-03-08T08:17:44;3.00;77.80
1415;DHT22;702;49.466;11.086;2024-03-08T08:20:15;3.00;77.50
1415;DHT22;702;49.466;11.086;2024-03-08T08:22:45;3.20;77.90
1415;DHT22;702;49.466;11.086;2024-03-08T08:25:15;3.40;77.10
1415;DHT22;702;49.466;11.086;2024-03-08T08:27:46;3.50;76.80
1415;DHT22;702;49.466;11.086;2024-03-08T08:30:14;3.50;76.70
1415;DHT22;702;49.466;11.086;2024-03-08T08:32:42;3.70;76.50
1415;DHT22;702;49.466;11.086;2024-03-08T08:35:09;3.80;76.20
1415;DHT22;702;49.466;11.086;2024-03-08T08:37:41;3.90;76.10
1415;DHT22;702;49.466;11.086;2024-03-08T08:40:10;4.00;75.60
1415;DHT22;702;49.466;11.086;2024-03-08T08:42:40;4.00;74.80
1415;DHT22;702;49.466;11.086;2024-03-08T08:45:09;4.00;75.00
1415;DHT22;702;49.466;11.086;2024-03-08T08:47:37;4.10;75.00
1415;DHT22;702;49.466;11.086;2024-03-08T08:50:09;4.30;74.70
1415;DHT22;702;49.466;11.086;2024-03-08T08:52:42;4.50;74.20
1415;DHT22;702;49.466;11.086;2024-03-08T08:55:10;4.70;73.90
1415;DHT22;702;49.466;11.086;2024-03-08T08:57:40;4.80;73.70
1415;DHT22;702;49.466;11.086;2024-03-08T09:00:11;4.90;73.30
1415;DHT22;702;49.466;11.086;2024-03-08T09:02:41;4.90;72.50
1415;DHT22;702;49.466;11.086;2024-03-08T09:05:09;5.10;72.20
1415;DHT22;702;49.466;11.086;2024-03-08T09:07:37;5.20;70.60
1415;DHT22;702;49.466;11.086;2024-03-08T09:10:08;5.40;70.20
1415;DHT22;702;49.466;11.086;2024-03-08T09:12:39;5.40;69.60
1415;DHT22;702;49.466;11.086;2024-03-08T09:15:08;5.50;69.30
1415;DHT22;702;49.466;11.086;2024-03-08T09:17:36;5.50;68.90
1415;DHT22;702;49.466;11.086;2024-03-08T09:20:08;5.50;68.80
1415;DHT22;702;49.466;11.086;2024-03-08T09:22:40;5.60;68.80
1415;DHT22;702;49.466;11.086;2024-03-08T09:25:10;5.80;68.30
1415;DHT22;702;49.466;11.086;2024-03-08T09:27:38;5.80;67.70
1415;DHT22;702;49.466;11.086;2024-03-08T09:30:07;5.60;67.90
1415;DHT22;702;49.466;11.086;2024-03-08T09:32:35;5.60;67.80
1415;DHT22;702;49.466;11.086;2024-03-08T09:35:04;5.70;67.10
1415;DHT22;702;49.466;11.086;2024-03-08T09:37:33;5.70;67.30
1415;DHT22;702;49.466;11.086;2024-03-08T09:40:05;5.90;67.10
1415;DHT22;702;49.466;11.086;2024-03-08T09:42:43;6.10;66.90
1415;DHT22;702;49.466;11.086;2024-03-08T09:45:12;6.20;66.70
1415;DHT22;702;49.466;11.086;2024-03-08T09:47:41;6.40;66.40
1415;DHT22;702;49.466;11.086;2024-03-08T09:50:10;6.50;65.60
1415;DHT22;702;49.466;11.086;2024-03-08T09:52:39;6.50;65.70
1415;DHT22;702;49.466;11.086;2024-03-08T09:55:11;6.60;65.30
1415;DHT22;702;49.466;11.086;2024-03-08T09:57:40;6.60;64.50
1415;DHT22;702;49.466;11.086;2024-03-08T10:00:29;6.50;64.30
1415;DHT22;702;49.466;11.086;2024-03-08T10:03:01;6.50;64.10
1415;DHT22;702;49.466;11.086;2024-03-08T10:05:30;6.50;64.10
1415;DHT22;702;49.466;11.086;2024-03-08T10:08:02;6.50;63.40
1415;DHT22;702;49.466;11.086;2024-03-08T10:10:33;6.70;63.30
1415;DHT22;702;49.466;11.086;2024-03-08T10:13:05;6.60;63.10
1415;DHT22;702;49.466;11.086;2024-03-08T10:15:33;6.80;63.20
1415;DHT22;702;49.466;11.086;2024-03-08T10:18:00;6.80;62.80
1415;DHT22;702;49.466;11.086;2024-03-08T10:20:30;6.70;62.60
1415;DHT22;702;49.466;11.086;2024-03-08T10:23:01;6.80;62.70
1415;DHT22;702;49.466;11.086;2024-03-08T10:25:30;7.10;62.90
1415;DHT22;702;49.466;11.086;2024-03-08T10:28:04;7.20;62.10
1415;DHT22;702;49.466;11.086;2024-03-08T10:30:32;7.30;60.80
1415;DHT22;702;49.466;11.086;2024-03-08T10:33:00;7.30;60.70
1415;DHT22;702;49.466;11.086;2024-03-08T10:35:31;7.40;60.50
1415;DHT22;702;49.466;11.086;2024-03-08T10:37:58;7.50;60.30
1415;DHT22;702;49.466;11.086;2024-03-08T10:40:32;7.50;60.10
1415;DHT22;702;49.466;11.086;2024-03-08T10:43:00;7.50;59.90
1415;DHT22;702;49.466;11.086;2024-03-08T10:45:35;7.60;60.00
1415;DHT22;702;49.466;11.086;2024-03-08T10:48:28;7.70;58.90
1415;DHT22;702;49.466;11.086;2024-03-08T10:50:59;7.70;59.10
1415;DHT22;702;49.466;11.086;2024-03-08T10:53:29;7.70;58.60
1415;DHT22;702;49.466;11.086;2024-03-08T10:55:57;7.80;58.80
1415;DHT22;702;49.466;11.086;2024-03-08T10:58:26;7.90;58.50
1415;DHT22;702;49.466;11.086;2024-03-08T11:00:56;7.90;58.30
1415;DHT22;702;49.466;11.086;2024-03-08T11:03:43;8.10;57.90
1415;DHT22;702;49.466;11.086;2024-03-08T11:06:16;8.10;57.40
1415;DHT22;702;49.466;11.086;2024-03-08T11:08:49;8.10;57.30
1415;DHT22;702;49.466;11.086;2024-03-08T11:11:25;8.20;57.30
1415;DHT22;702;49.466;11.086;2024-03-08T11:14:00;8.30;57.00
1415;DHT22;702;49.466;11.086;2024-03-08T11:16:39;8.40;56.70
1415;DHT22;702;49.466;11.086;2024-03-08T11:19:26;8.50;56.40
1415;DHT22;702;49.466;11.086;2024-03-08T11:22:20;8.60;56.20
1415;DHT22;702;49.466;11.086;2024-03-08T11:24:50;8.70;56.10
1415;DHT22;702;49.466;11.086;2024-03-08T11:27:18;8.70;55.60
1415;DHT22;702;49.466;11.086;2024-03-08T11:29:59;8.80;55.30
1415;DHT22;702;49.466;11.086;2024-03-08T11:32:36;8.90;55.10
1415;DHT22;702;49.466;11.086;2024-03-08T11:35:06;8.80;54.80
1415;DHT22;702;49.466;11.086;2024-03-08T11:37:36;8.70;54.70
1415;DHT22;702;49.466;11.086;2024-03-08T11:40:12;8.90;55.20
1415;DHT22;702;49.466;11.086;2024-03-08T11:42:44;8.90;54.30
1415;DHT22;702;49.466;11.086;2024-03-08T11:45:14;9.00;54.60
1415;DHT22;702;49.466;11.086;2024-03-08T11:47:44;9.10;54.20
1415;DHT22;702;49.466;11.086;2024-03-08T11:50:13;9.10;53.70
1415;DHT22;702;49.466;11.086;2024-03-08T11:52:44;9.10;53.50
1415;DHT22;702;49.466;11.086;2024-03-08T11:55:12;9.10;53.70
1415;DHT22;702;49.466;11.086;2024-03-08T11:57:40;9.20;54.00
1415;DHT22;702;49.466;11.086;2024-03-08T12:00:15;9.40;54.00
1415;DHT22;702;49.466;11.086;2024-03-08T12:03:03;9.50;53.50
1415;DHT22;702;49.466;11.086;2024-03-08T12:05:32;9.60;53.40
1415;DHT22;702;49.466;11.086;2024-03-08T12:08:02;9.60;53.10
1415;DHT22;702;49.466;11.086;2024-03-08T12:10:38;9.60;52.70
1415;DHT22;702;49.466;11.086;2024-03-08T12:13:07;9.60;52.80
1415;DHT22;702;49.466;11.086;2024-03-08T12:15:40;9.70;52.90
1415;DHT22;702;49.466;11.086;2024-03-08T12:18:11;9.90;52.50
1415;DHT22;702;49.466;11.086;2024-03-08T12:20:40;10.10;51.20
1415;DHT22;702;49.466;11.086;2024-03-08T12:23:14;10.00;50.90
1415;DHT22;702;49.466;11.086;2024-03-08T12:25:42;10.00;50.80
1415;DHT22;702;49.466;11.086;2024-03-08T12:28:12;9.90;51.60
1415;DHT22;702;49.466;11.086;2024-03-08T12:30:48;9.90;50.90
1415;DHT22;702;49.466;11.086;2024-03-08T12:33:21;9.90;50.80
1415;DHT22;702;49.466;11.086;2024-03-08T12:35:53;10.00;50.20
1415;DHT22;702;49.466;11.086;2024-03-08T12:38:24;10.00;50.40
1415;DHT22;702;49.466;11.086;2024-03-08T12:40:59;10.00;50.10
1415;DHT22;702;49.466;11.086;2024-03-08T12:43:28;10.10;50.40
1415;DHT22;702;49.466;11.086;2024-03-08T12:45:57;10.20;50.30
1415;DHT22;702;49.466;11.086;2024-03-08T12:48:26;10.20;50.00
1415;DHT22;702;49.466;11.086;2024-03-08T12:50:54;10.20;49.70
1415;DHT22;702;49.466;11.086;2024-03-08T12:53:22;10.40;50.20
1415;DHT22;702;49.466;11.086;2024-03-08T12:55:51;10.40;50.20
1415;DHT22;702;49.466;11.086;2024-03-08T12:58:20;10.40;49.60
1415;DHT22;702;49.466;11.086;2024-03-08T13:00:49;10.40;49.10
1415;DHT22;702;49.466;11.086;2024-03-08T13:03:16;10.40;49.50
1415;DHT22;702;49.466;11.086;2024-03-08T13:05:46;10.50;49.40
1415;DHT22;702;49.466;11.086;2024-03-08T13:08:13;10.50;49.10
1415;DHT22;702;49.466;11.086;2024-03-08T13:10:42;10.40;49.60
1415;DHT22;702;49.466;11.086;2024-03-08T13:13:13;10.50;49.50
1415;DHT22;702;49.466;11.086;2024-03-08T13:15:43;10.50;50.10
1415;DHT22;702;49.466;11.086;2024-03-08T13:18:11;10.70;50.40
1415;DHT22;702;49.466;11.086;2024-03-08T13:20:42;10.80;51.10
1415;DHT22;702;49.466;11.086;2024-03-08T13:23:16;10.80;51.40
1415;DHT22;702;49.466;11.086;2024-03-08T13:25:44;10.70;51.80
1415;DHT22;702;49.466;11.086;2024-03-08T13:28:16;10.70;50.00
1415;DHT22;702;49.466;11.086;2024-03-08T13:30:52;10.50;50.50
1415;DHT22;702;49.466;11.086;2024-03-08T13:33:21;10.60;51.30
1415;DHT22;702;49.466;11.086;2024-03-08T13:35:49;10.70;51.20
1415;DHT22;702;49.466;11.086;2024-03-08T13:38:19;10.70;51.40
1415;DHT22;702;49.466;11.086;2024-03-08T13:40:48;10.60;51.60
1415;DHT22;702;49.466;11.086;2024-03-08T13:43:20;10.80;51.40
1415;DHT22;702;49.466;11.086;2024-03-08T13:45:49;10.70;51.50
1415;DHT22;702;49.466;11.086;2024-03-08T13:48:18;10.80;51.50
1415;DHT22;702;49.466;11.086;2024-03-08T13:50:47;10.70;51.10
1415;DHT22;702;49.466;11.086;2024-03-08T13:53:19;10.60;51.30
1415;DHT22;702;49.466;11.086;2024-03-08T13:55:49;10.50;51.40
1415;DHT22;702;49.466;11.086;2024-03-08T13:58:23;10.60;51.70
1415;DHT22;702;49.466;11.086;2024-03-08T14:00:51;10.70;51.40
1415;DHT22;702;49.466;11.086;2024-03-08T14:03:19;10.70;51.30
1415;DHT22;702;49.466;11.086;2024-03-08T14:05:50;10.70;51.20
1415;DHT22;702;49.466;11.086;2024-03-08T14:08:20;10.60;51.20
1415;DHT22;702;49.466;11.086;2024-03-08T14:10:54;10.50;51.30
1415;DHT22;702;49.466;11.086;2024-03-08T14:13:23;10.60;51.40
1415;DHT22;702;49.466;11.086;2024-03-08T14:15:51;10.70;51.30
1415;DHT22;702;49.466;11.086;2024-03-08T14:18:22;10.70;51.10
1415;DHT22;702;49.466;11.086;2024-03-08T14:20:50;10.70;51.20
1415;DHT22;702;49.466;11.086;2024-03-08T14:23:20;10.70;50.90
1415;DHT22;702;49.466;11.086;2024-03-08T14:25:50;10.70;51.20
1415;DHT22;702;49.466;11.086;2024-03-08T14:28:20;10.90;51.40
1415;DHT22;702;49.466;11.086;2024-03-08T14:30:49;11.00;51.00
1415;DHT22;702;49.466;11.086;2024-03-08T14:33:16;10.90;50.90
1415;DHT22;702;49.466;11.086;2024-03-08T14:35:43;10.80;51.10
1415;DHT22;702;49.466;11.086;2024-03-08T14:38:16;10.90;51.20
1415;DHT22;702;49.466;11.086;2024-03-08T14:40:45;10.80;51.20
1415;DHT22;702;49.466;11.086;2024-03-08T14:43:17;10.90;51.20
1415;DHT22;702;49.466;11.086;2024-03-08T14:45:47;10.90;51.00
1415;DHT22;702;49.466;11.086;2024-03-08T14:48:18;10.80;51.00
1415;DHT22;702;49.466;11.086;2024-03-08T14:50:46;10.80;51.10
1415;DHT22;702;49.466;11.086;2024-03-08T14:53:14;10.60;51.10
1415;DHT22;702;49.466;11.086;2024-03-08T14:55:42;10.60;51.30
1415;DHT22;702;49.466;11.086;2024-03-08T14:58:12;10.80;51.70
1415;DHT22;702;49.466;11.086;2024-03-08T15:00:40;10.90;51.40
1415;DHT22;702;49.466;11.086;2024-03-08T15:03:07;10.70;51.10
1415;DHT22;702;49.466;11.086;2024-03-08T15:05:38;10.60;51.20
1415;DHT22;702;49.466;11.086;2024-03-08T15:08:08;10.50;51.40
1415;DHT22;702;49.466;11.086;2024-03-08T15:10:47;10.60;51.60
1415;DHT22;702;49.466;11.086;2024-03-08T15:13:19;10.60;51.60
1415;DHT22;702;49.466;11.086;2024-03-08T15:15:49;10.50;51.50
1415;DHT22;702;49.466;11.086;2024-03-08T15:18:22;10.50;51.60
1415;DHT22;702;49.466;11.086;2024-03-08T15:20:56;10.50;51.70
1415;DHT22;702;49.466;11.086;2024-03-08T15:23:24;10.50;51.80
1415;DHT22;702;49.466;11.086;2024-03-08T15:25:53;10.50;51.90
1415;DHT22;702;49.466;11.086;2024-03-08T15:28:20;10.40;51.90
1415;DHT22;702;49.466;11.086;2024-03-08T15:30:53;10.50;52.30
1415;DHT22;702;49.466;11.086;2024-03-08T15:33:30;10.40;52.20
1415;DHT22;702;49.466;11.086;2024-03-08T15:35:58;10.30;52.30
1415;DHT22;702;49.466;11.086;2024-03-08T15:38:34;10.30;52.40
1415;DHT22;702;49.466;11.086;2024-03-08T15:41:06;10.30;52.50
1415;DHT22;702;49.466;11.086;2024-03-08T15:43:36;10.40;52.50
1415;DHT22;702;49.466;11.086;2024-03-08T15:46:04;10.10;52.50
1415;DHT22;702;49.466;11.086;2024-03-08T15:48:33;10.00;52.60
1415;DHT22;702;49.466;11.086;2024-03-08T15:51:03;10.00;52.90
1415;DHT22;702;49.466;11.086;2024-03-08T15:53:32;10.00;53.00
1415;DHT22;702;49.466;11.086;2024-03-08T15:56:06;9.90;54.00
1415;DHT22;702;49.466;11.086;2024-03-08T15:58:35;9.90;54.20
1415;DHT22;702;49.466;11.086;2024-03-08T16:01:03;9.80;54.30
1415;DHT22;702;49.466;11.086;2024-03-08T16:03:32;9.70;54.30
1415;DHT22;702;49.466;11.086;2024-03-08T16:06:00;9.60;54.40
1415;DHT22;702;49.466;11.086;2024-03-08T16:08:30;9.70;54.60
1415;DHT22;702;49.466;11.086;2024-03-08T16:10:58;9.70;54.80
1415;DHT22;702;49.466;11.086;2024-03-08T16:13:29;9.60;54.70
1415;DHT22;702;49.466;11.086;2024-03-08T16:15:56;9.50;54.80
1415;DHT22;702;49.466;11.086;2024-03-08T16:18:25;9.50;54.90
1415;DHT22;702;49.466;11.086;2024-03-08T16:20:54;9.40;54.90
1415;DHT22;702;49.466;11.086;2024-03-08T16:23:22;9.30;54.90
1415;DHT22;702;49.466;11.086;2024-03-08T16:25:52;9.20;54.90
1415;DHT22;702;49.466;11.086;2024-03-08T16:28:19;9.20;54.90